Tiempo atmosférico en la estación meteorológica de Fuentesauco, Zamora (811 m.)



Fecha
DESCASC
Temp. máxima en grados centígrados (hora)
DESCASC
Temp. mínima en grados centígrados (hora)
DESCASC
Temp. media en grados centígrados
DESCASC
Racha de viento máxima en m/sg (hora)
DESCASC
Velocidad máxima media en intervalos de 10 minutos(hora)
DESCASC
Precipitaciones diarias en mm
DESCASC
Precipitaciones de 00:00 a 06:00 en mm
DESCASC
Precipitaciones de 06:00 a 12:00 en mm
DESCASC
Precipitaciones de 12:00 a 18:00 en mm
DESCASC
Precipitaciones de 18:00 a 24:00 en mm
DESCASC
28-02-2021 13 (18:10) -1.2 (08:10) 5.9 6.11 (23:50) 4.72 (23:59) 0 0 0 0 0
27-02-2021 14.7 (17:20) 3 (07:40) 8.8 7.22 (15:20) 5 (15:10) 0 0 0 0 0
26-02-2021 13.6 (15:50) 4.8 (07:50) 9.2 6.67 (12:20) 4.72 (12:10) 0 0 0 0 0
25-02-2021 13.2 (15:50) 5.9 (00:00) 9.5 6.67 (05:50) 5 (04:40) 0 0 0 0 0
24-02-2021 16.5 (16:00) 1.7 (00:00) 9.1 8.89 (16:20) 5.83 (16:20) 0 0 0 0 0
23-02-2021 14.4 (17:40) 1.3 (00:00) 7.8 6.39 (15:00) 3.61 (16:30) 0 0 0 0 0
22-02-2021 11 (17:10) 0.6 (00:00) 5.8 7.5 (02:10) 5 (02:10) 0 0 0 0 0
21-02-2021 11.9 (02:50) 4.1 (00:00) 8 17.5 (06:50) 11.67 (07:00) 9.4 0 0.6 4 4.8
20-02-2021 14.5 (14:10) 6.7 (00:00) 10.6 16.94 (15:50) 12.5 (15:50) 0 0 0 0 0
19-02-2021 14.5 (13:20) 5.7 (00:00) 10.1 13.89 (11:50) 10.56 (13:10) 0 0 0 0 0
18-02-2021 12.8 (13:50) 6.9 (00:00) 9.9 16.39 (12:50) 11.67 (12:50) 0.2 0 0 0 0.2
17-02-2021 14 (16:00) 6.6 (00:00) 10.3 11.11 (13:30) 8.61 (20:50) 0.6 0.6 0 0 0
16-02-2021 12.8 (13:40) 4 (00:00) 8.4 15.83 (11:20) 10.83 (12:10) 0 0 0 0 0
15-02-2021 17.4 (17:20) 2.3 (00:00) 9.8 6.67 (21:40) 5 (21:40) 0 0 0 0 0
14-02-2021 17 (16:20) 2.7 (00:00) 9.9 5.56 (12:30) 4.17 (12:30) 0 0 0 0 0
13-02-2021 13.2 (17:10) 3.6 (00:00) 8.4 6.67 (14:30) 5.28 (13:30) 0 0 0 0 0
12-02-2021 12.3 (16:10) 5.6 (00:00) 9 13.89 (11:50) 9.17 (11:50) 5 5 0 0 0
11-02-2021 14 (14:30) 7 (00:00) 10.5 10.83 (22:30) 8.06 (22:30) 0.2 0.2 0 0 0
10-02-2021 11.2 (16:00) 3.7 (00:00) 7.4 15.28 (03:00) 11.67 (03:00) 11.8 11.6 0 0 0.2
09-02-2021 7.1 (11:40) 3 (00:00) 5 18.61 (12:10) 11.94 (12:20) 16 1.6 7.4 6 1
08-02-2021 8 (13:40) 4.3 (00:00) 6.2 15.83 (01:40) 11.39 (01:00) 7.2 3.4 0.2 3.6 0
07-02-2021 6.3 (13:50) 1.6 (00:00) 4 12.22 (17:20) 9.72 (22:50) 2.6 0 0 1.4 1.2
06-02-2021 7.8 (12:30) 5 (00:00) 6.4 10.28 (14:20) 8.33 (14:30) 3.2 0.6 1.6 0.8 0.2
05-02-2021 9.3 (16:40) 4.8 (00:00) 7.1 9.17 (19:10) 5.56 (19:10) 7.8 2.4 2 0 3.4
04-02-2021 8 (00:00) 4.9 (00:00) 6.5 6.67 (19:20) 4.72 (19:30) 27.4 0 12.6 11.4 3.4
03-02-2021 11.6 (13:20) 7.6 (00:00) 9.6 17.78 (02:40) 12.78 (02:30) 4.4 0 0.6 2 1.8
02-02-2021 12.5 (14:40) 7.7 (23:30) 10.1 13.61 (23:10) 10.28 (23:10) 0.6 0.4 0.2 0 0
01-02-2021 13.2 (16:10) 6.8 (00:00) 10 17.22 (00:10) 11.94 (00:40) 0 0 0 0 0

Gráficas

Temp. máximas Temp. mínimas Temp. medias Precipitaciones Rachas de viento máximas Velocidades máximas media en intervalos de 10 minutos

Datos horarios

Fecha y hora oficial Temperatura (ºC) Velocidad del viento (km/h) Dirección del viento Racha (km/h) Dirección de racha Precipitación (mm) Presión (hPa) Tendencia (hPa) Humedad (%)
2021-03-02 23:00:00 6.9 3 Oeste 5 Oeste 0 -- -- 91
2021-03-02 22:00:00 8 3 Sudoeste 4 Sudoeste 0 -- -- 84
2021-03-02 21:00:00 9.3 0 Calma 21 Sur 0 -- -- 82
2021-03-02 20:00:00 10.1 9 Sur 20 Sur 0 -- -- 82
2021-03-02 19:00:00 11.4 3 Noroeste 21 Oeste 0 -- -- 77
2021-03-02 18:00:00 12.6 10 Noroeste 19 Sudoeste 0 -- -- 72
2021-03-02 17:00:00 13.8 11 Sudoeste 19 Sudoeste 0 -- -- 62
2021-03-02 16:00:00 14.3 8 Sudoeste 18 Oeste 0 -- -- 61
2021-03-02 15:00:00 13.6 8 Sudoeste 21 Sudoeste 0 -- -- 64
2021-03-02 14:00:00 12.6 12 Sudoeste 19 Sudoeste 0 -- -- 66
2021-03-02 13:00:00 11.8 13 Sudoeste 19 Sur 0 -- -- 71
2021-03-02 12:00:00 10.6 11 Sur 20 Sur 0 -- -- 79
2021-03-02 11:00:00 8.7 15 Sur 22 Sur 0 -- -- 85
2021-03-02 10:00:00 7.1 10 Sur 17 Sudeste 0.2 -- -- 88
2021-03-02 09:00:00 6.4 5 Sur 14 Sudeste 0 -- -- 89
2021-03-02 08:00:00 5.7 6 Sudeste 10 Sur 0 -- -- 88
2021-03-02 07:00:00 5 6 Sur 9 Sur 0 -- -- 88
2021-03-02 06:00:00 5.7 4 Sudeste 10 Sur 0 -- -- 88
2021-03-02 05:00:00 5.1 6 Sur 11 Sur 0 -- -- 88
2021-03-02 04:00:00 5.1 5 Sur 16 Sudeste 0 -- -- 88
2021-03-02 03:00:00 6.4 14 Sudeste 18 Sudeste 0 -- -- 85
2021-03-02 02:00:00 6.3 12 Sudeste 19 Este 0 -- -- 86
2021-03-02 01:00:00 6.2 10 Sur 14 Sur 0 -- -- 87
2021-03-02 00:00:00 6.8 10 Sur 15 Sur 0 -- -- 88
2021-03-01 23:00:00 7.3 12 Sur 18 Sur 0 -- -- 87
2021-03-01 22:00:00 8.3 11 Sur 15 Sudeste 0 -- -- 85
2021-03-01 21:00:00 8.5 15 Sur 28 Sur 0.4 -- -- 88
2021-03-01 20:00:00 9.3 17 Sur 24 Sur 0 -- -- 79
2021-03-01 19:00:00 9.7 15 Sudeste 26 Sudeste 0.2 -- -- 78
2021-03-01 18:00:00 9.9 3 Sudeste 42 Sur 0 -- -- 77
2021-03-01 17:00:00 11.5 23 Sur 41 Sur 0 -- -- 69
2021-03-01 16:00:00 12.8 30 Sudeste 39 Sudeste 0 -- -- 60
2021-03-01 15:00:00 13.4 13 Sudeste 27 Sudeste 0 -- -- 58
2021-03-01 14:00:00 13.8 13 Sudeste 24 Sudeste 0 -- -- 58
2021-03-01 13:00:00 12.4 13 Sur 26 Sudeste 0 -- -- 62
2021-03-01 12:00:00 11.3 14 Sudeste 25 Sudeste 0 -- -- 66
2021-03-01 11:00:00 10.3 18 Sudeste 28 Sudeste 0 -- -- 70
2021-03-01 10:00:00 8.5 14 Sudeste 23 Sudeste 0 -- -- 77
2021-03-01 09:00:00 6.4 15 Sudeste 26 Sudeste 0 -- -- 84
2021-03-01 08:00:00 5.9 17 Sudeste 27 Sudeste 0.2 -- -- 85
2021-03-01 07:00:00 6.1 22 Sudeste 33 Sudeste 0.8 -- -- 86
2021-03-01 06:00:00 6.4 21 Sudeste 31 Sudeste 0.2 -- -- 85
2021-03-01 05:00:00 6.4 22 Sudeste 30 Sudeste 0 -- -- 86
2021-03-01 04:00:00 6.7 14 Sudeste 21 Sudeste 2 -- -- 84
2021-03-01 03:00:00 7.1 16 Sudeste 23 Sudeste 0 -- -- 79
2021-03-01 02:00:00 6.3 14 Sur 20 Sur 0 -- -- 85
2021-03-01 01:00:00 5.9 12 Sur 19 Sur 0 -- -- 82
2021-03-01 00:00:00 6.9 17 Sur 22 Sur 0 -- -- 79
2021-02-28 23:00:00 6.9 4 Sur 6 Sudeste 0 -- -- 79
2021-02-28 22:00:00 6.8 0 Calma 3 Sudoeste 0 -- -- 82
2021-02-28 21:00:00 6.2 0 Calma 8 Este 0 -- -- 79
2021-02-28 20:00:00 6.1 5 Nordeste 6 Nordeste 0 -- -- 83
2021-02-28 19:00:00 10.2 3 Norte 4 Norte 0 -- -- 67
2021-02-28 18:00:00 12.9 0 Calma 11 Oeste 0 -- -- 53
2021-02-28 17:00:00 12.8 5 Oeste 17 Norte 0 -- -- 53
2021-02-28 16:00:00 12.2 6 Norte 16 Norte 0 -- -- 59
2021-02-28 15:00:00 10.6 8 Nordeste 17 Norte 0 -- -- 60
2021-02-28 14:00:00 9.7 10 Norte 17 Norte 0 -- -- 62
2021-02-28 13:00:00 8.3 4 Noroeste 12 Norte 0 -- -- 67
2021-02-28 12:00:00 6.9 6 Norte 11 Nordeste 0 -- -- 71
2021-02-28 11:00:00 4.8 5 Norte 14 Nordeste 0 -- -- 79
2021-02-28 10:00:00 3 12 Nordeste 21 Nordeste 0 -- -- 87
2021-02-28 09:00:00 -0.6 0 Calma 3 Noroeste 0 -- -- 96
2021-02-28 08:00:00 -1 4 Norte 7 Norte 0 -- -- 94
2021-02-28 07:00:00 -0.9 4 Norte 6 Norte 0 -- -- 94
2021-02-28 06:00:00 -0.7 4 Norte 12 Nordeste 0 -- -- 91
2021-02-28 05:00:00 -0.2 7 Nordeste 12 Nordeste 0 -- -- 90
2021-02-28 04:00:00 0.5 9 Nordeste 15 Nordeste 0 -- -- 87
2021-02-28 03:00:00 1.9 13 Nordeste 17 Nordeste 0 -- -- 82
2021-02-28 02:00:00 2.6 10 Norte 17 Nordeste 0 -- -- 79
2021-02-28 01:00:00 3.4 14 Nordeste 17 Nordeste 0 -- -- 76
2021-02-28 00:00:00 4 8 Norte 14 Nordeste 0 -- -- 76
2021-02-27 23:00:00 4.2 9 Nordeste 17 Nordeste 0 -- -- 83
2021-02-27 22:00:00 6.3 12 Nordeste 19 Nordeste 0 -- -- 82
2021-02-27 21:00:00 7.3 9 Norte 15 Nordeste 0 -- -- 84
2021-02-27 20:00:00 9.5 11 Nordeste 21 Nordeste 0 -- -- 76
2021-02-27 19:00:00 11.6 14 Nordeste 18 Nordeste 0 -- -- 70
2021-02-27 18:00:00 14.2 13 Nordeste 22 Nordeste 0 -- -- 55
2021-02-27 17:00:00 14.6 15 Nordeste 22 Nordeste 0 -- -- 55
2021-02-27 16:00:00 14.2 15 Nordeste 26 Nordeste 0 -- -- 60
2021-02-27 15:00:00 13.6 16 Nordeste 24 Nordeste 0 -- -- 62
2021-02-27 14:00:00 11.9 15 Nordeste 24 Nordeste 0 -- -- 73
2021-02-27 13:00:00 9.9 13 Nordeste 21 Nordeste 0 -- -- 77
2021-02-27 12:00:00 8.4 13 Nordeste 24 Nordeste 0 -- -- 82
2021-02-27 11:00:00 6.7 14 Nordeste 23 Nordeste 0 -- -- 91
2021-02-27 10:00:00 5.4 12 Nordeste 19 Nordeste 0 -- -- 98
2021-02-27 09:00:00 3.5 4 Norte 9 Norte 0 -- -- 98
2021-02-27 08:00:00 3.1 4 Norte 10 Norte 0 -- -- 97
2021-02-27 07:00:00 3.3 7 Norte 10 Norte 0 -- -- 97
2021-02-27 06:00:00 3.3 7 Norte 10 Norte 0 -- -- 96
2021-02-27 05:00:00 3.6 7 Norte 9 Norte 0 -- -- 96
2021-02-27 04:00:00 3.9 6 Norte 8 Norte 0 -- -- 95
2021-02-27 03:00:00 4.3 5 Norte 10 Norte 0 -- -- 93
2021-02-27 02:00:00 5.2 6 Nordeste 12 Nordeste 0 -- -- 92
2021-02-27 01:00:00 5.6 8 Nordeste 10 Nordeste 0 -- -- 92
2021-02-27 00:00:00 5.4 5 Nordeste 6 Nordeste 0 -- -- 90
2021-02-26 23:00:00 6.9 0 Calma 10 Nordeste 0 -- -- 87
2021-02-26 22:00:00 8.3 10 Nordeste 14 Nordeste 0 -- -- 83
2021-02-26 21:00:00 8.1 0 Calma 8 Norte 0 -- -- 83
2021-02-26 20:00:00 8.5 7 Norte 10 Nordeste 0 -- -- 82
2021-02-26 19:00:00 10.6 8 Nordeste 15 Nordeste 0 -- -- 76
2021-02-26 18:00:00 12.9 13 Nordeste 18 Nordeste 0 -- -- 63
2021-02-26 17:00:00 13.3 11 Nordeste 19 Este 0 -- -- 64
2021-02-26 16:00:00 13.5 12 Nordeste 21 Nordeste 0 -- -- 59
2021-02-26 15:00:00 13.2 12 Nordeste 24 Nordeste 0 -- -- 62
2021-02-26 14:00:00 12.9 14 Este 24 Este 0 -- -- 65
2021-02-26 13:00:00 11.7 13 Este 24 Este 0 -- -- 68
2021-02-26 12:00:00 10.4 16 Nordeste 23 Nordeste 0 -- -- 76
2021-02-26 11:00:00 8.4 15 Nordeste 22 Nordeste 0 -- -- 84
2021-02-26 10:00:00 7 11 Nordeste 15 Nordeste 0 -- -- 88
2021-02-26 09:00:00 5.5 4 Norte 11 Nordeste 0 -- -- 95
2021-02-26 08:00:00 4.8 8 Nordeste 12 Nordeste 0 -- -- 94
2021-02-26 07:00:00 5.3 7 Nordeste 13 Nordeste 0 -- -- 94
2021-02-26 06:00:00 5.5 6 Nordeste 9 Nordeste 0 -- -- 94
2021-02-26 05:00:00 6 6 Norte 8 Norte 0 -- -- 93
2021-02-26 04:00:00 6.4 5 Norte 13 Nordeste 0 -- -- 91
2021-02-26 03:00:00 7.1 5 Nordeste 12 Nordeste -- -- -- 91
2021-02-26 02:00:00 7.6 9 Nordeste 15 Nordeste 0 -- -- 90
2021-02-26 01:00:00 8 8 Este 15 Este 0 -- -- 88
2021-02-26 00:00:00 8.8 12 Este 17 Sudeste 0 -- -- 79
2021-02-25 23:00:00 9.6 10 Sudeste 16 Sudeste 0 -- -- 74
2021-02-25 22:00:00 8.8 11 Este 20 Este 0 -- -- 82
2021-02-25 21:00:00 9.7 13 Nordeste 16 Nordeste 0 -- -- 79
2021-02-25 20:00:00 10 9 Nordeste 12 Nordeste 0 -- -- 79
2021-02-25 19:00:00 10.8 8 Nordeste 15 Nordeste 0 -- -- 74
2021-02-25 18:00:00 11.6 12 Nordeste 17 Nordeste 0 -- -- 68
2021-02-25 17:00:00 12.3 11 Nordeste 16 Nordeste 0 -- -- 68
2021-02-25 16:00:00 12.8 10 Norte 16 Noroeste 0 -- -- 65
2021-02-25 15:00:00 12.4 7 Norte 12 Nordeste 0 -- -- 68
2021-02-25 14:00:00 11.9 4 Norte 9 Norte 0 -- -- 69
2021-02-25 13:00:00 11.5 0 Calma 8 Sudeste 0 -- -- 69
2021-02-25 12:00:00 11 2 Sudoeste 7 Oeste 0 -- -- 70
2021-02-25 11:00:00 9.4 2 Oeste 8 Noroeste 0 -- -- 77
2021-02-25 10:00:00 7.8 6 Sur 15 Sudeste 0 -- -- 83
2021-02-25 09:00:00 7.2 4 Sur 22 Sudeste 0 -- -- 83
2021-02-25 08:00:00 7.3 4 Sudeste 10 Sudeste 0 -- -- 82
2021-02-25 07:00:00 7.1 4 Sur 20 Sur 0 -- -- 83
2021-02-25 06:00:00 6.9 13 Sur 24 Sudeste 0 -- -- 84
2021-02-25 05:00:00 6.9 14 Sudeste 24 Sudeste 0 -- -- 83
2021-02-25 04:00:00 7.7 13 Sudeste 19 Sudeste 0 -- -- 78
2021-02-25 03:00:00 7.7 10 Sudeste 13 Sudeste 0 -- -- 78
2021-02-25 02:00:00 7.2 3 Sur 15 Sudeste 0 -- -- 79
2021-02-25 01:00:00 7.6 8 Sudeste 10 Sudeste 0 -- -- 79
2021-02-25 00:00:00 7.3 3 Sur 6 Sudeste 0 -- -- 77
2021-02-24 23:00:00 7.2 0 Calma 7 Sudeste 0 -- -- 81
2021-02-24 22:00:00 9.9 8 Sudeste 14 Sudeste 0 -- -- 67
2021-02-24 21:00:00 8.6 0 Calma 14 Este 0 -- -- 73
2021-02-24 20:00:00 10.3 5 Sudeste 12 Este 0 -- -- 69
2021-02-24 19:00:00 12.2 8 Oeste 21 Sudoeste 0 -- -- 61
2021-02-24 18:00:00 14.9 15 Sudoeste 24 Sudoeste 0 -- -- 50
2021-02-24 17:00:00 16 19 Sudoeste 32 Sudoeste 0 -- -- 45
2021-02-24 16:00:00 16.5 10 Sudoeste 26 Oeste 0 -- -- 44
2021-02-24 15:00:00 16.3 11 Oeste 22 Sudoeste 0 -- -- 47
2021-02-24 14:00:00 15.7 9 Sur 20 Sudeste 0 -- -- 50
2021-02-24 13:00:00 13.5 11 Sudeste 19 Sudeste 0 -- -- 56
2021-02-24 12:00:00 12.3 6 Sudoeste 13 Sudeste 0 -- -- 59
2021-02-24 11:00:00 10.6 6 Sudeste 15 Sudeste 0 -- -- 68
2021-02-24 10:00:00 7.1 4 Este 8 Este 0 -- -- 80
2021-02-24 09:00:00 3.1 2 Sudeste 7 Sudeste 0 -- -- 91
2021-02-24 08:00:00 2.3 0 Calma 5 Sudeste 0 -- -- 90
2021-02-24 07:00:00 1.9 0 Calma 12 Este 0 -- -- 85
2021-02-24 06:00:00 2.8 0 Calma 7 Sudeste 0 -- -- 83
2021-02-24 05:00:00 3.7 3 Sudoeste 12 Sur 0 -- -- 81
2021-02-24 04:00:00 4 9 Sudeste 12 Sudeste 0 -- -- 83
2021-02-24 03:00:00 2.9 2 Sudeste 6 Sudeste 0 -- -- 85
2021-02-24 02:00:00 3.9 2 Sur 6 Sur 0 -- -- 81
2021-02-24 01:00:00 4.5 2 Sur 10 Sudeste 0 -- -- 78
2021-02-24 00:00:00 4.8 5 Sur 13 Sudeste 0 -- -- 80
2021-02-23 23:00:00 5.1 2 Sudoeste 7 Sudoeste 0 -- -- 75
2021-02-23 22:00:00 5.7 3 Sudoeste 5 Sudoeste 0 -- -- 72
2021-02-23 21:00:00 7.1 2 Sudoeste 13 Sudeste 0 -- -- 69
2021-02-23 20:00:00 7.9 3 Sudeste 10 Este 0 -- -- 65
2021-02-23 19:00:00 11 7 Este 9 Sudeste 0 -- -- 57
2021-02-23 18:00:00 14.2 6 Sur 17 Sur 0 -- -- 31
2021-02-23 17:00:00 14.3 9 Sudoeste 21 Sur 0 -- -- 31
2021-02-23 16:00:00 13.8 10 Sur 21 Sur 0 -- -- 32
2021-02-23 15:00:00 13.3 12 Sur 23 Sudeste 0 -- -- 38
2021-02-23 14:00:00 12.5 11 Sur 17 Sur 0 -- -- 44
2021-02-23 13:00:00 11.6 8 Sur 13 Sur 0 -- -- 55
2021-02-23 12:00:00 10.5 9 Sur 14 Sur 0 -- -- 56
2021-02-23 11:00:00 9.3 8 Sur 13 Sur 0 -- -- 57
2021-02-23 10:00:00 6.7 5 Sur 8 Sur 0 -- -- 73
2021-02-23 09:00:00 1.9 3 Sudoeste 6 Sur 0 -- -- 79
2021-02-23 08:00:00 1.5 3 Sudoeste 7 Sudoeste 0 -- -- 83
2021-02-23 07:00:00 1.8 5 Sudoeste 9 Sudoeste 0 -- -- 85
2021-02-23 06:00:00 1.5 3 Sudoeste 11 Sudoeste 0 -- -- 86
2021-02-23 05:00:00 2.3 4 Sudoeste 11 Sudoeste 0 -- -- 82
2021-02-23 04:00:00 2 5 Sudoeste 13 Sudoeste 0 -- -- 83
2021-02-23 03:00:00 1.7 5 Sudoeste 12 Sur 0 -- -- 82
2021-02-23 02:00:00 1.7 3 Sudoeste 13 Sur 0 -- -- 80
2021-02-23 01:00:00 2.4 8 Sur 11 Sur 0 -- -- 78
2021-02-23 00:00:00 3.1 4 Sudoeste 8 Sur 0 -- -- 74
2021-02-22 23:00:00 2.6 2 Sudoeste 4 Sudoeste 0 -- -- 78
2021-02-22 22:00:00 3.2 2 Sudoeste 4 Sudoeste 0 -- -- 77
2021-02-22 21:00:00 4.1 0 Calma 3 Noroeste 0 -- -- 78
2021-02-22 20:00:00 5.9 0 Calma 6 Oeste 0 -- -- 69
2021-02-22 19:00:00 9 4 Sur 12 Sudoeste 0 -- -- 62
2021-02-22 18:00:00 10.7 6 Sudoeste 13 Oeste 0 -- -- 48
2021-02-22 17:00:00 10.7 9 Sudoeste 19 Sudoeste 0 -- -- 46
2021-02-22 16:00:00 9.9 9 Sudoeste 20 Oeste 0 -- -- 53
2021-02-22 15:00:00 9.1 11 Sudoeste 18 Sudoeste 0 -- -- 64
2021-02-22 14:00:00 8.2 9 Sudoeste 17 Sudoeste 0 -- -- 56
2021-02-22 13:00:00 7.3 6 Sudoeste 13 Sudoeste 0 -- -- 62
2021-02-22 12:00:00 5.8 8 Sudoeste 14 Sudoeste 0 -- -- 75
2021-02-22 11:00:00 3.8 11 Sudoeste 15 Sudoeste 0 -- -- 89
2021-02-22 10:00:00 2.2 9 Sudoeste 16 Sudoeste 0 -- -- 92
2021-02-22 09:00:00 0.7 10 Oeste 14 Oeste 0 -- -- 94
2021-02-22 08:00:00 0.8 11 Oeste 19 Oeste 0 -- -- 93
2021-02-22 07:00:00 1.1 6 Oeste 19 Oeste 0 -- -- 91
2021-02-22 06:00:00 1.8 11 Oeste 20 Oeste 0 -- -- 89
2021-02-22 05:00:00 2.1 9 Oeste 21 Oeste 0 -- -- 91
2021-02-22 04:00:00 2.5 14 Oeste 26 Oeste 0 -- -- 92
2021-02-22 03:00:00 3 14 Oeste 27 Oeste 0 -- -- 90
2021-02-22 02:00:00 3.4 14 Oeste 24 Noroeste 0 -- -- 89
2021-02-22 01:00:00 3.9 13 Oeste 22 Oeste 0 -- -- 89
2021-02-22 00:00:00 4.4 13 Oeste 23 Oeste 0.2 -- -- 88
2021-02-21 23:00:00 4.2 15 Oeste 26 Oeste 0.2 -- -- 90
2021-02-21 22:00:00 4.2 20 Oeste 30 Oeste 2 -- -- 92
2021-02-21 21:00:00 4.8 10 Oeste 21 Oeste 0.6 -- -- 92
2021-02-21 20:00:00 5 10 Oeste 17 Oeste 0.8 -- -- 91
2021-02-21 19:00:00 4.9 11 Oeste 20 Oeste 1 -- -- 91
2021-02-21 18:00:00 4.9 10 Oeste 26 Oeste 1.2 -- -- 92
2021-02-21 17:00:00 4.6 13 Oeste 32 Oeste 1.6 -- -- 92
2021-02-21 16:00:00 4.7 20 Sudoeste 26 Sudoeste 0.6 -- -- 92
2021-02-21 15:00:00 5.7 15 Sudoeste 21 Sudoeste 0.4 -- -- 91
2021-02-21 14:00:00 6.1 14 Sudoeste 32 Sudoeste 0.2 -- -- 89
2021-02-21 13:00:00 6.5 16 Oeste 27 Oeste 0 -- -- 86
2021-02-21 12:00:00 6.3 18 Oeste 31 Oeste 0.6 -- -- 89
2021-02-21 11:00:00 9.8 18 Sur 37 Sur 0 -- -- 73
2021-02-21 10:00:00 9.5 27 Sur 37 Sur 0 -- -- 72
2021-02-21 09:00:00 9.1 26 Sur 42 Sur 0 -- -- 68
2021-02-21 08:00:00 9.6 30 Sur 63 Sur 0 -- -- 62
2021-02-21 07:00:00 10.8 42 Sur 63 Sur 0 -- -- 51
2021-02-21 06:00:00 11.5 36 Sur 56 Sur 0 -- -- 40
2021-02-21 05:00:00 9.9 20 Sudeste 35 Sur 0 -- -- 47
2021-02-21 04:00:00 9.6 13 Sudeste 23 Sudeste 0 -- -- 44
2021-02-21 03:00:00 11.7 15 Sudeste 36 Sur 0 -- -- 34
2021-02-21 02:00:00 10.5 17 Sur 29 Sur 0 -- -- 39
2021-02-21 01:00:00 10.3 13 Sudeste 17 Sudeste 0 -- -- 39
2021-02-21 00:00:00 9.1 4 Sur 17 Sudeste 0 -- -- 52
2021-02-20 23:00:00 9.7 13 Sur 32 Sur 0 -- -- 46
2021-02-20 22:00:00 10.1 18 Sur 27 Sur 0 -- -- 46
2021-02-20 21:00:00 10.3 14 Sudeste 33 Sur 0 -- -- 47
2021-02-20 20:00:00 11.1 20 Sur 32 Sur 0 -- -- 44
2021-02-20 19:00:00 11.8 19 Sur 31 Sur 0 -- -- 46
2021-02-20 18:00:00 12.6 22 Sur 56 Sur 0 -- -- 47
2021-02-20 17:00:00 13.2 40 Sudoeste 58 Sudoeste 0 -- -- 43
2021-02-20 16:00:00 13.7 42 Sudoeste 61 Sudoeste 0 -- -- 41
2021-02-20 15:00:00 13.9 28 Sudoeste 58 Sudoeste 0 -- -- 40
2021-02-20 14:00:00 14.3 32 Sudoeste 54 Sudoeste 0 -- -- 44
2021-02-20 13:00:00 12.5 26 Sur 47 Sur 0 -- -- 44
2021-02-20 12:00:00 11.3 26 Sur 38 Sur 0 -- -- 59
2021-02-20 11:00:00 9.8 26 Sur 36 Sur 0 -- -- 66
2021-02-20 10:00:00 8.2 27 Sur 37 Sur 0 -- -- 69
2021-02-20 09:00:00 7 13 Sudoeste 31 Sudoeste 0 -- -- 73
2021-02-20 08:00:00 7.4 24 Sudoeste 31 Sur 0 -- -- 70
2021-02-20 07:00:00 7.9 21 Sudoeste 34 Sudoeste 0 -- -- 68
2021-02-20 06:00:00 8.1 14 Sur 29 Sudoeste 0 -- -- 64
2021-02-20 05:00:00 8.6 5 Sudoeste 26 Sur 0 -- -- 61
2021-02-20 04:00:00 8.2 23 Sur 40 Sur 0 -- -- 70
2021-02-20 03:00:00 7.9 31 Sur 41 Sur 0 -- -- 75
2021-02-20 02:00:00 7.1 19 Sur 27 Sudoeste 0 -- -- 77
2021-02-20 01:00:00 7.4 20 Sur 32 Sudoeste 0 -- -- 75
2021-02-20 00:00:00 7.8 19 Sudoeste 32 Sudoeste 0 -- -- 75
2021-02-19 23:00:00 8 18 Sudoeste 28 Sudoeste 0 -- -- 77
2021-02-19 22:00:00 8 11 Sur 36 Sur 0 -- -- 75
2021-02-19 21:00:00 9.3 25 Sudoeste 34 Sudoeste 0 -- -- 71
2021-02-19 20:00:00 9.9 25 Sudoeste 44 Sur 0 -- -- 65
2021-02-19 19:00:00 11 31 Sudoeste 41 Sudoeste 0 -- -- 60
2021-02-19 18:00:00 11.6 26 Sudoeste 34 Sudoeste 0 -- -- 59
2021-02-19 17:00:00 12.4 25 Sudoeste 43 Sudoeste 0 -- -- 48
2021-02-19 16:00:00 13.9 33 Sudoeste 48 Sudoeste 0 -- -- 40
2021-02-19 15:00:00 13.7 26 Sudoeste 46 Sudoeste 0 -- -- 42
2021-02-19 14:00:00 14 27 Sudoeste 50 Sudoeste 0 -- -- 42
2021-02-19 13:00:00 14 36 Sudoeste 49 Sudoeste 0 -- -- 42
2021-02-19 12:00:00 12.2 34 Sudoeste 50 Sudoeste 0 -- -- 55
2021-02-19 11:00:00 10.7 31 Sudoeste 40 Sudoeste 0 -- -- 68
2021-02-19 10:00:00 8.8 24 Sur 31 Sur 0 -- -- 74
2021-02-19 09:00:00 6.7 18 Sur 26 Sur 0 -- -- 82
2021-02-19 08:00:00 6.9 19 Sur 27 Sur 0 -- -- 83
2021-02-19 07:00:00 5.7 12 Sur 20 Sur 0 -- -- 88
2021-02-19 06:00:00 6.2 16 Sur 22 Sur 0 -- -- 85
2021-02-19 05:00:00 7 16 Sur 24 Sudoeste 0 -- -- 83
2021-02-19 04:00:00 7.4 17 Sur 30 Sudoeste 0 -- -- 83
2021-02-19 03:00:00 8.6 23 Sudoeste 30 Sudoeste 0 -- -- 79
2021-02-19 02:00:00 8.9 19 Sur 31 Sudoeste 0 -- -- 79
2021-02-19 01:00:00 9.4 19 Sudoeste 28 Sudoeste 0 -- -- 78
2021-02-19 00:00:00 9.2 14 Sudoeste 20 Sudoeste 0 -- -- 84
2021-02-18 23:00:00 9.2 14 Sudoeste 25 Sudoeste 0 -- -- 83
2021-02-18 22:00:00 9.1 15 Sudoeste 21 Sur 0 -- -- 83
2021-02-18 21:00:00 9.1 14 Sudoeste 23 Sudoeste 0.2 -- -- 83
2021-02-18 20:00:00 9.4 10 Sur 14 Sur 0 -- -- 83
2021-02-18 19:00:00 9.5 11 Sudoeste 26 Sudoeste 0 -- -- 86
2021-02-18 18:00:00 9.8 19 Sudoeste 42 Sudoeste 0 -- -- 85
2021-02-18 17:00:00 11.8 21 Sudoeste 42 Sudoeste 0 -- -- 68
2021-02-18 16:00:00 12.4 25 Sudoeste 48 Sudoeste 0 -- -- 68
2021-02-18 15:00:00 11.7 33 Sudoeste 52 Sudoeste 0 -- -- 67
2021-02-18 14:00:00 12.5 37 Sudoeste 57 Sudoeste 0 -- -- 63
2021-02-18 13:00:00 11.9 41 Sudoeste 59 Sudoeste 0 -- -- 58
2021-02-18 12:00:00 11.4 38 Sudoeste 53 Sudoeste 0 -- -- 64
2021-02-18 11:00:00 10.1 29 Sudoeste 41 Sudoeste 0 -- -- 71
2021-02-18 10:00:00 8 19 Sudoeste 40 Sur 0 -- -- 80
2021-02-18 09:00:00 6.9 27 Sudoeste 40 Sudoeste 0 -- -- 84
2021-02-18 08:00:00 6.9 28 Sudoeste 40 Sudoeste 0 -- -- 84
2021-02-18 07:00:00 7 26 Sudoeste 35 Sur 0 -- -- 86
2021-02-18 06:00:00 7.2 25 Sur 37 Sur 0 -- -- 86
2021-02-18 05:00:00 8 29 Sudoeste 39 Sudoeste 0 -- -- 83
2021-02-18 04:00:00 8.6 31 Sudoeste 44 Sudoeste 0 -- -- 83
2021-02-18 03:00:00 7.9 18 Sudoeste 28 Sudoeste 0 -- -- 87
2021-02-18 02:00:00 7.4 13 Sudoeste 24 Sudoeste 0 -- -- 86
2021-02-18 01:00:00 8.4 20 Sudoeste 33 Sudoeste 0 -- -- 83
2021-02-18 00:00:00 8.7 15 Sudoeste 30 Sudoeste 0 -- -- 82
2021-02-17 23:00:00 9.2 22 Sudoeste 33 Sudoeste 0 -- -- 81
2021-02-17 22:00:00 9.7 28 Sudoeste 36 Sudoeste 0 -- -- 78
2021-02-17 21:00:00 9.9 28 Sudoeste 38 Sudoeste 0 -- -- 75
2021-02-17 20:00:00 9.8 11 Sudoeste 23 Sudoeste 0 -- -- 78
2021-02-17 19:00:00 11.1 15 Sur 21 Sudoeste 0 -- -- 80
2021-02-17 18:00:00 12.9 14 Sudoeste 25 Sudoeste 0 -- -- 71
2021-02-17 17:00:00 13 18 Sudoeste 31 Sudoeste 0 -- -- 70
2021-02-17 16:00:00 14 20 Sudoeste 30 Sudoeste 0 -- -- 68
2021-02-17 15:00:00 13.3 16 Sudoeste 29 Sudoeste 0 -- -- 71
2021-02-17 14:00:00 12.9 23 Oeste 40 Sudoeste 0 -- -- 70
2021-02-17 13:00:00 12.6 24 Sudoeste 37 Oeste 0 -- -- 73
2021-02-17 12:00:00 11.2 22 Sudoeste 32 Sudoeste 0 -- -- 80
2021-02-17 11:00:00 10.4 17 Sudoeste 24 Sudoeste 0 -- -- 86
2021-02-17 10:00:00 8.7 14 Sur 19 Sur 0 -- -- 94
2021-02-17 09:00:00 7.1 5 Sudoeste 10 Sur 0 -- -- 96
2021-02-17 08:00:00 6.7 5 Sudoeste 10 Sur 0 -- -- 96
2021-02-17 07:00:00 6.9 4 Sudoeste 10 Sudoeste 0 -- -- 96
2021-02-17 06:00:00 7.4 6 Sudoeste 10 Sudoeste 0 -- -- 95
2021-02-17 05:00:00 8 8 Sudoeste 13 Sudoeste 0 -- -- 96
2021-02-17 04:00:00 7.9 5 Sudoeste 12 Oeste 0 -- -- 95
2021-02-17 03:00:00 8.3 9 Sudoeste 15 Oeste 0.4 -- -- 95
2021-02-17 02:00:00 8.1 10 Sudoeste 20 Sudoeste 0.2 -- -- 93
2021-02-17 01:00:00 8.3 13 Sudoeste 21 Sudoeste 0 -- -- 88
2021-02-17 00:00:00 8.5 17 Sudoeste 22 Sudoeste 0 -- -- 86
2021-02-16 23:00:00 8.6 12 Sudoeste 17 Sudoeste 0 -- -- 87
2021-02-16 22:00:00 8.7 7 Sur 11 Sudoeste 0 -- -- 92
2021-02-16 21:00:00 9 5 Sudoeste 18 Sudoeste 0 -- -- 91
2021-02-16 20:00:00 9.5 11 Sudoeste 24 Sudoeste 0 -- -- 87
2021-02-16 19:00:00 10 10 Sudoeste 30 Oeste 0 -- -- 82
2021-02-16 18:00:00 10.9 20 Sudoeste 29 Sudoeste 0 -- -- 77
2021-02-16 17:00:00 11.3 19 Sudoeste 35 Sudoeste 0 -- -- 74
2021-02-16 16:00:00 11.8 20 Sudoeste 35 Sudoeste 0 -- -- 70
2021-02-16 15:00:00 11.7 26 Sudoeste 37 Sudoeste 0 -- -- 68
2021-02-16 14:00:00 12.4 26 Sudoeste 51 Sudoeste 0 -- -- 65
2021-02-16 13:00:00 12.5 34 Sudoeste 51 Sudoeste 0 -- -- 63
2021-02-16 12:00:00 11.7 33 Sudoeste 57 Sudoeste 0 -- -- 66
2021-02-16 11:00:00 10.5 35 Sudoeste 49 Sudoeste 0 -- -- 69
2021-02-16 10:00:00 8.8 15 Sudoeste 28 Oeste 0 -- -- 73
2021-02-16 09:00:00 4.7 11 Sudoeste 14 Sudoeste 0 -- -- 84
2021-02-16 08:00:00 5.3 2 Sudoeste 13 Oeste 0 -- -- 78
2021-02-16 07:00:00 6 7 Sudoeste 25 Sudoeste 0 -- -- 76
2021-02-16 06:00:00 8.8 22 Sudoeste 31 Sudoeste 0 -- -- 67
2021-02-16 05:00:00 7.6 19 Sur 24 Sur 0 -- -- 73
2021-02-16 04:00:00 6.3 5 Sudoeste 10 Sudoeste 0 -- -- 76
2021-02-16 03:00:00 6.8 5 Sudoeste 9 Sudoeste 0 -- -- 77
2021-02-16 02:00:00 7.1 0 Calma 8 Sudoeste 0 -- -- 76
2021-02-16 01:00:00 7.5 5 Sudoeste 17 Sudoeste 0 -- -- 76
2021-02-16 00:00:00 8.1 8 Sur 17 Sur 0 -- -- 77
2021-02-15 23:00:00 8.7 4 Sur 24 Sur 0 -- -- 77
2021-02-15 22:00:00 9.8 17 Sur 24 Sur 0 -- -- 73
2021-02-15 21:00:00 9.1 0 Calma 21 Sur 0 -- -- 77
2021-02-15 20:00:00 10.4 7 Sur 16 Sur 0 -- -- 76
2021-02-15 19:00:00 13 10 Sudoeste 14 Sudoeste 0 -- -- 66
2021-02-15 18:00:00 16.4 7 Sudoeste 10 Sudoeste 0 -- -- 53
2021-02-15 17:00:00 17 6 Sudoeste 10 Sudoeste 0 -- -- 48
2021-02-15 16:00:00 16.7 3 Sur 10 Este 0 -- -- 54
2021-02-15 15:00:00 15.6 5 Sudeste 12 Este 0 -- -- 55
2021-02-15 14:00:00 15 7 Este 13 Este 0 -- -- 51
2021-02-15 13:00:00 14.7 5 Este 15 Sudoeste 0 -- -- 58
2021-02-15 12:00:00 13.3 14 Sudoeste 18 Sudoeste 0 -- -- 61
2021-02-15 11:00:00 11.2 8 Sur 13 Sur 0 -- -- 72
2021-02-15 10:00:00 9.1 5 Sudeste 9 Sudeste 0 -- -- 73
2021-02-15 09:00:00 2.9 3 Sur 7 Sur 0 -- -- 96
2021-02-15 08:00:00 3.4 0 Calma 9 Este 0 -- -- 90
2021-02-15 07:00:00 4.1 4 Nordeste 9 Nordeste 0 -- -- 94
2021-02-15 06:00:00 4.5 0 Calma 9 Sudoeste 0 -- -- 90
2021-02-15 05:00:00 4.5 5 Sudoeste 9 Sur 0 -- -- 89
2021-02-15 04:00:00 5.9 6 Sudeste 13 Sur 0 -- -- 87
2021-02-15 03:00:00 6 5 Sur 9 Sur 0 -- -- 85
2021-02-15 02:00:00 6.4 4 Sur 7 Sur 0 -- -- 83
2021-02-15 01:00:00 6 2 Sudoeste 8 Sudoeste 0 -- -- 85
2021-02-15 00:00:00 5.6 0 Calma 5 Sudoeste 0 -- -- 87
2021-02-14 23:00:00 7.3 0 Calma 6 Sur 0 -- -- 78
2021-02-14 22:00:00 8.3 4 Sudoeste 8 Sudoeste 0 -- -- 81
2021-02-14 21:00:00 9.5 7 Sudoeste 12 Sudoeste 0 -- -- 78
2021-02-14 20:00:00 10.9 9 Sudoeste 13 Sudoeste 0 -- -- 77
2021-02-14 19:00:00 12.9 4 Sudoeste 7 Sudoeste 0 -- -- 71
2021-02-14 18:00:00 15.4 4 Sudoeste 13 Sudoeste 0 -- -- 64
2021-02-14 17:00:00 16.9 5 Sudoeste 12 Sudoeste 0 -- -- 52
2021-02-14 16:00:00 16.4 9 Sudoeste 14 Sudoeste 0 -- -- 53
2021-02-14 15:00:00 15.1 6 Sudoeste 16 Sur 0 -- -- 55
2021-02-14 14:00:00 14.3 11 Sur 17 Sudeste 0 -- -- 61
2021-02-14 13:00:00 12.8 12 Sur 20 Sur 0 -- -- 69
2021-02-14 12:00:00 11.3 14 Sur 19 Sudeste 0 -- -- 74
2021-02-14 11:00:00 10.2 5 Sudeste 8 Sudeste 0 -- -- 80
2021-02-14 10:00:00 7.3 3 Sur 8 Sudeste 0 -- -- 90
2021-02-14 09:00:00 2.8 2 Sur 5 Sudeste 0 -- -- 95
2021-02-14 08:00:00 4.1 6 Este 8 Sudeste 0 -- -- 97
2021-02-14 07:00:00 3 2 Este 4 Este 0 -- -- 93
2021-02-14 06:00:00 3.7 0 Calma 8 Sudoeste 0 -- -- 93
2021-02-14 05:00:00 4.4 4 Sudoeste 6 Sudoeste 0 -- -- 95
2021-02-14 04:00:00 4.6 2 Sudoeste 8 Sur 0 -- -- 92
2021-02-14 03:00:00 4.2 2 Sudoeste 5 Sudoeste 0 -- -- 93
2021-02-14 02:00:00 5 0 Calma 6 Sudoeste 0 -- -- 91
2021-02-14 01:00:00 5.7 3 Sudoeste 13 Sudoeste 0 -- -- 93
2021-02-14 00:00:00 6.4 5 Sudoeste 9 Sur 0 -- -- 90
2021-02-13 23:00:00 6.6 5 Sudoeste 10 Sudoeste 0 -- -- 91
2021-02-13 22:00:00 6.7 3 Sudoeste 5 Oeste 0 -- -- 91
2021-02-13 21:00:00 7.2 3 Sudoeste 6 Sudoeste 0 -- -- 88
2021-02-13 20:00:00 8.6 3 Sudoeste 9 Oeste 0 -- -- 84
2021-02-13 19:00:00 10.2 6 Oeste 20 Oeste 0 -- -- 76
2021-02-13 18:00:00 12.3 10 Oeste 22 Oeste 0 -- -- 69
2021-02-13 17:00:00 12.7 14 Noroeste 22 Oeste 0 -- -- 69
2021-02-13 16:00:00 12.6 13 Oeste 19 Oeste 0 -- -- 67
2021-02-13 15:00:00 12.9 13 Oeste 24 Oeste 0 -- -- 68
2021-02-13 14:00:00 12.3 15 Sudoeste 24 Oeste 0 -- -- 70
2021-02-13 13:00:00 10.8 14 Sudoeste 20 Sudoeste 0 -- -- 71
2021-02-13 08:00:00 -- -- -- -- -- -- -- -- --
2021-02-13 07:00:00 -- -- -- -- -- -- -- -- --
2021-02-13 06:00:00 -- -- -- -- -- -- -- -- --
2021-02-13 05:00:00 3.9 10 Sudoeste 16 Sudoeste 0 -- -- 95
2021-02-13 04:00:00 3.9 3 Sudoeste 11 Sudoeste 0 -- -- 93
2021-02-13 03:00:00 4.4 8 Sudoeste 17 Sudoeste 0 -- -- 91
2021-02-13 02:00:00 4.8 5 Sudoeste 15 Sudoeste 0 -- -- 90
2021-02-13 01:00:00 5.1 5 Sudoeste 13 Sudoeste 0 -- -- 90
2021-02-13 00:00:00 5.6 6 Sudoeste 10 Oeste 0 -- -- 88
2021-02-12 23:00:00 7 4 Sudoeste 15 Oeste 0 -- -- 83
2021-02-12 22:00:00 6.3 7 Sudoeste 12 Oeste 0 -- -- 86
2021-02-12 21:00:00 7.3 6 Sudoeste 17 Oeste 0 -- -- 82
2021-02-12 20:00:00 7.3 8 Sudoeste 16 Oeste 0 -- -- 83
2021-02-12 19:00:00 9.2 13 Oeste 26 Oeste 0 -- -- 75
2021-02-12 18:00:00 11.3 20 Oeste 31 Oeste 0 -- -- 63
2021-02-12 17:00:00 11.9 22 Oeste 32 Oeste 0 -- -- 60
2021-02-12 16:00:00 12.2 22 Oeste 42 Oeste 0 -- -- 61
2021-02-12 15:00:00 11.9 27 Noroeste 42 Oeste 0 -- -- 66
2021-02-12 14:00:00 11.2 25 Oeste 41 Oeste 0 -- -- 71
2021-02-12 13:00:00 10.3 28 Oeste 47 Oeste 0 -- -- 71
2021-02-12 12:00:00 9.7 30 Oeste 50 Oeste 0 -- -- 75
2021-02-12 11:00:00 9.1 30 Oeste 44 Oeste 0 -- -- 80
2021-02-12 10:00:00 7.5 27 Oeste 43 Oeste 0 -- -- 87
2021-02-12 09:00:00 6.8 25 Oeste 35 Oeste 0 -- -- 90
2021-02-12 08:00:00 7 26 Oeste 42 Oeste 0 -- -- 90
2021-02-12 07:00:00 7.3 23 Oeste 37 Oeste 0 -- -- 90
2021-02-12 06:00:00 7.6 21 Oeste 49 Oeste 0.4 -- -- 87
2021-02-12 05:00:00 8.9 31 Oeste 46 Oeste 0.2 -- -- 90
2021-02-12 04:00:00 9 25 Oeste 38 Sudoeste 0.2 -- -- 93
2021-02-12 03:00:00 8.8 23 Sudoeste 41 Sudoeste 1.2 -- -- 93
2021-02-12 02:00:00 9.3 28 Sudoeste 41 Sudoeste 3 -- -- 90
2021-02-12 01:00:00 10.2 26 Sudoeste 36 Sudoeste 0 -- -- 88
2021-02-12 00:00:00 9.8 26 Sur 36 Sudoeste 0 -- -- 89
2021-02-11 23:00:00 9.8 23 Sudoeste 39 Sudoeste 0 -- -- 88
2021-02-11 22:00:00 9.8 28 Sudoeste 35 Sudoeste 0 -- -- 89
2021-02-11 21:00:00 9.9 21 Sudoeste 30 Sudoeste 0 -- -- 89
2021-02-11 20:00:00 10.3 23 Sur 38 Sudoeste 0 -- -- 88
2021-02-11 19:00:00 10.9 21 Sudoeste 32 Sudoeste 0 -- -- 87
2021-02-11 18:00:00 12.3 21 Sudoeste 32 Sudoeste 0 -- -- 83
2021-02-11 17:00:00 13.2 19 Sudoeste 34 Sudoeste 0 -- -- 79
2021-02-11 16:00:00 13.6 17 Sudoeste 32 Sudoeste 0 -- -- 82
2021-02-11 15:00:00 13.2 23 Sudoeste 37 Sudoeste 0 -- -- 83
2021-02-11 14:00:00 13.2 23 Sudoeste 31 Sudoeste 0 -- -- 84
2021-02-11 13:00:00 11.4 13 Sudoeste 22 Sudoeste 0 -- -- 93
2021-02-11 12:00:00 11.6 13 Sudoeste 24 Sudoeste 0 -- -- 90
2021-02-11 11:00:00 10.9 13 Sudoeste 20 Sudoeste 0 -- -- 93
2021-02-11 10:00:00 10 15 Sudoeste 27 Sudoeste 0 -- -- 95
2021-02-11 09:00:00 9.3 15 Sudoeste 23 Sudoeste 0 -- -- 96
2021-02-11 08:00:00 9.4 16 Sudoeste 22 Sudoeste 0 -- -- 96
2021-02-11 07:00:00 9.3 11 Sudoeste 25 Sudoeste 0 -- -- 96
2021-02-11 06:00:00 9.3 16 Sudoeste 26 Sudoeste 0 -- -- 96
2021-02-11 05:00:00 9 13 Sudoeste 26 Sudoeste 0.2 -- -- 96
2021-02-11 04:00:00 8.8 14 Sudoeste 21 Sudoeste 0 -- -- 96
2021-02-11 03:00:00 8.2 15 Sudoeste 22 Sudoeste 0 -- -- 96
2021-02-11 02:00:00 7.2 12 Sur 21 Sudoeste 0 -- -- 94
2021-02-11 01:00:00 7.2 9 Sudoeste 18 Sudoeste 0 -- -- 91
2021-02-11 00:00:00 7 4 Oeste 24 Sudoeste 0.2 -- -- 89
2021-02-10 23:00:00 7.1 8 Sudoeste 15 Oeste 0 -- -- 81
2021-02-10 22:00:00 7.1 6 Sudoeste 11 Sudoeste 0 -- -- 79
2021-02-10 21:00:00 6.9 7 Sudoeste 13 Oeste 0 -- -- 77
2021-02-10 20:00:00 7 8 Sudoeste 19 Sudoeste 0 -- -- 78
2021-02-10 19:00:00 8.6 14 Oeste 28 Oeste 0 -- -- 70
2021-02-10 18:00:00 9 18 Oeste 30 Sudoeste 0 -- -- 68
2021-02-10 17:00:00 10.5 24 Oeste 36 Oeste 0 -- -- 60
2021-02-10 16:00:00 11.2 22 Oeste 34 Oeste 0 -- -- 57
2021-02-10 15:00:00 10.9 21 Sudoeste 39 Oeste 0 -- -- 59
2021-02-10 14:00:00 9.8 27 Oeste 38 Oeste 0 -- -- 64
2021-02-10 13:00:00 8.7 29 Sudoeste 39 Oeste 0 -- -- 69
2021-02-10 12:00:00 7.4 30 Oeste 39 Sudoeste 0 -- -- 74
2021-02-10 11:00:00 7 25 Oeste 39 Oeste 0 -- -- 75
2021-02-10 10:00:00 5.2 28 Oeste 45 Oeste 0 -- -- 82
2021-02-10 09:00:00 5 29 Oeste 44 Oeste 0 -- -- 83
2021-02-10 08:00:00 5.2 28 Oeste 46 Oeste 0 -- -- 88
2021-02-10 07:00:00 5.1 28 Oeste 49 Oeste 0 -- -- 89
2021-02-10 06:00:00 5 28 Oeste 49 Sudoeste 0 -- -- 91
2021-02-10 05:00:00 4.7 30 Oeste 48 Oeste 0.2 -- -- 90
2021-02-10 04:00:00 4.1 30 Oeste 52 Oeste 2 -- -- 91
2021-02-10 03:00:00 5.7 42 Oeste 55 Oeste 3.6 -- -- 90
2021-02-10 02:00:00 4.8 26 Sudoeste 46 Sudoeste 3.4 -- -- 93
2021-02-10 01:00:00 4.7 23 Oeste 48 Sudoeste 2.4 -- -- 94
2021-02-10 00:00:00 4.9 33 Sudoeste 52 Sudoeste 0 -- -- 92
2021-02-09 23:00:00 4.9 38 Sudoeste 55 Sudoeste 0 -- -- 91
2021-02-09 22:00:00 5.1 28 Sudoeste 46 Sudoeste 0.2 -- -- 93
2021-02-09 21:00:00 5.3 31 Oeste 52 Oeste 0.2 -- -- 91
2021-02-09 20:00:00 5.4 35 Sudoeste 50 Sudoeste 0 -- -- 90
2021-02-09 19:00:00 3.9 21 Sudoeste 33 Oeste 0.6 -- -- 93
2021-02-09 18:00:00 3.3 8 Oeste 33 Noroeste 1.6 -- -- 94
2021-02-09 17:00:00 6.3 22 Sudoeste 40 Sudoeste 0 -- -- 86
2021-02-09 16:00:00 5.9 23 Sudoeste 42 Sudoeste 0 -- -- 85
2021-02-09 15:00:00 5.4 32 Sudoeste 43 Sudoeste 0 -- -- 87
2021-02-09 14:00:00 3.5 23 Sudoeste 38 Oeste 0.8 -- -- 94
2021-02-09 13:00:00 3.6 24 Oeste 67 Oeste 3.6 -- -- 92
2021-02-09 12:00:00 6.9 33 Sudoeste 54 Sudoeste 3.6 -- -- 94
2021-02-09 11:00:00 6.9 26 Sudoeste 40 Sudoeste 0.8 -- -- 93
2021-02-09 10:00:00 6.5 31 Sudoeste 54 Sudoeste 1.2 -- -- 92
2021-02-09 09:00:00 6.4 28 Sudoeste 58 Sur 1 -- -- 93
2021-02-09 08:00:00 6.5 37 Sudoeste 50 Sudoeste 0.4 -- -- 92
2021-02-09 07:00:00 6.3 32 Sudoeste 52 Sudoeste 0.4 -- -- 89
2021-02-09 06:00:00 5.9 26 Sudoeste 43 Sudoeste 0.4 -- -- 92
2021-02-09 05:00:00 5.5 28 Sudoeste 40 Sudoeste 0.4 -- -- 94
2021-02-09 04:00:00 5.1 24 Sudoeste 39 Sur 0.4 -- -- 93
2021-02-09 03:00:00 4.6 22 Sudoeste 32 Sur 0.4 -- -- 91
2021-02-09 02:00:00 4.9 20 Sudoeste 45 Sudoeste 0 -- -- 90
2021-02-09 01:00:00 5.1 22 Sudoeste 40 Sudoeste 0 -- -- 89
2021-02-09 00:00:00 5.3 31 Sudoeste 41 Oeste 0 -- -- 92
2021-02-08 23:00:00 5.8 23 Sudoeste 40 Sudoeste 0 -- -- 92
2021-02-08 22:00:00 5.9 27 Sudoeste 38 Sudoeste 0 -- -- 93
2021-02-08 21:00:00 5.9 23 Oeste 39 Oeste 0 -- -- 90
2021-02-08 20:00:00 6.4 28 Oeste 45 Sudoeste 0 -- -- 90
2021-02-08 19:00:00 6.5 30 Oeste 41 Oeste 0 -- -- 90
2021-02-08 18:00:00 6.8 29 Oeste 42 Oeste 0 -- -- 89
2021-02-08 17:00:00 7 26 Oeste 46 Oeste 0 -- -- 89
2021-02-08 16:00:00 6.5 29 Oeste 52 Oeste 2.4 -- -- 91
2021-02-08 15:00:00 5.9 32 Oeste 51 Sudoeste 1.2 -- -- 90
2021-02-08 14:00:00 7.6 37 Oeste 50 Oeste 0 -- -- 77
2021-02-08 13:00:00 7.1 30 Oeste 51 Oeste 0 -- -- 80
2021-02-08 12:00:00 6.7 33 Oeste 49 Oeste 0 -- -- 82
2021-02-08 11:00:00 5.6 25 Oeste 40 Sudoeste 0 -- -- 89
2021-02-08 10:00:00 4.9 23 Sudoeste 36 Sudoeste 0 -- -- 91
2021-02-08 09:00:00 4.7 26 Sudoeste 36 Sudoeste 0.2 -- -- 93
2021-02-08 08:00:00 4.4 20 Sudoeste 37 Sudoeste 0 -- -- 92
2021-02-08 07:00:00 5 25 Sudoeste 40 Sudoeste 0 -- -- 91
2021-02-08 06:00:00 5 25 Oeste 47 Oeste 0 -- -- 90
2021-02-08 05:00:00 5.3 18 Sudoeste 31 Sudoeste 0 -- -- 92
2021-02-08 04:00:00 5.8 21 Sudoeste 36 Oeste 0.6 -- -- 90
2021-02-08 03:00:00 5.7 23 Sudoeste 42 Sudoeste 1.6 -- -- 94
2021-02-08 02:00:00 5.9 37 Sudoeste 57 Sudoeste 0 -- -- 92
2021-02-08 01:00:00 5.7 41 Sudoeste 55 Sudoeste 1.2 -- -- 93
2021-02-08 00:00:00 5.1 24 Sudoeste 38 Sudoeste 1.2 -- -- 93
2021-02-07 23:00:00 5.1 33 Sudoeste 44 Sudoeste 0 -- -- 92
2021-02-07 22:00:00 4.6 27 Sudoeste 40 Sudoeste 0 -- -- 93
2021-02-07 21:00:00 4.2 25 Sudoeste 39 Sudoeste 0 -- -- 93
2021-02-07 20:00:00 4.2 24 Sudoeste 43 Sudoeste 0 -- -- 95
2021-02-07 19:00:00 4.1 25 Sudoeste 39 Sudoeste 0 -- -- 94
2021-02-07 18:00:00 3.6 24 Sudoeste 44 Sudoeste 0.2 -- -- 93
2021-02-07 17:00:00 3.8 22 Sudoeste 36 Oeste 0.8 -- -- 91
2021-02-07 16:00:00 4.1 24 Oeste 35 Oeste 0.4 -- -- 86
2021-02-07 15:00:00 4.7 24 Oeste 38 Oeste 0 -- -- 79
2021-02-07 14:00:00 6 26 Oeste 33 Oeste 0 -- -- 70
2021-02-07 13:00:00 6 22 Sudoeste 32 Sudoeste 0 -- -- 77
2021-02-07 12:00:00 6 20 Sudoeste 28 Sudoeste 0 -- -- 83
2021-02-07 11:00:00 5.7 13 Sudoeste 18 Sudoeste 0 -- -- 80
2021-02-07 10:00:00 3.8 0 Calma 3 Sudoeste 0 -- -- 77
2021-02-07 09:00:00 1.6 0 Calma 3 Oeste 0 -- -- 90
2021-02-07 08:00:00 2.3 2 Oeste 3 Noroeste 0 -- -- 88
2021-02-07 07:00:00 2.5 0 Calma 10 Noroeste 0 -- -- 84
2021-02-07 06:00:00 2.8 7 Norte 18 Norte 0 -- -- 84
2021-02-07 05:00:00 3.3 9 Norte 13 Noroeste 0 -- -- 93
2021-02-07 04:00:00 3.8 0 Calma 3 Noroeste 0 -- -- 95
2021-02-07 03:00:00 3.9 0 Calma 7 Noroeste 0 -- -- 96
2021-02-07 02:00:00 3.9 6 Nordeste 21 Nordeste 0 -- -- 96
2021-02-07 01:00:00 4.4 13 Nordeste 17 Nordeste 0 -- -- 94
2021-02-07 00:00:00 5 0 Calma 4 Nordeste 0 -- -- 93
2021-02-06 23:00:00 5 0 Calma 5 Este 0 -- -- 93
2021-02-06 22:00:00 5 3 Este 11 Este 0.2 -- -- 92
2021-02-06 21:00:00 5.3 5 Nordeste 11 Este 0 -- -- 93
2021-02-06 20:00:00 5.5 8 Este 18 Nordeste 0 -- -- 92
2021-02-06 19:00:00 5.8 10 Nordeste 23 Nordeste 0 -- -- 91
2021-02-06 18:00:00 6 18 Nordeste 30 Nordeste 0 -- -- 90
2021-02-06 17:00:00 6.1 21 Nordeste 29 Nordeste 0 -- -- 94
2021-02-06 16:00:00 6.2 23 Nordeste 35 Nordeste 0 -- -- 92
2021-02-06 15:00:00 6.3 26 Nordeste 37 Norte 0 -- -- 94
2021-02-06 14:00:00 6.6 23 Nordeste 32 Norte 0.2 -- -- 95
2021-02-06 13:00:00 6.9 19 Nordeste 27 Norte 0.6 -- -- 94
2021-02-06 12:00:00 7.4 6 Norte 8 Norte 0 -- -- 93
2021-02-06 11:00:00 7.3 2 Noroeste 4 Noroeste 0 -- -- 97
2021-02-06 10:00:00 6.2 0 Calma 4 Sudeste 0.2 -- -- 98
2021-02-06 09:00:00 5.9 3 Sudeste 5 Sudeste 0 -- -- 97
2021-02-06 08:00:00 6 4 Este 6 Este 0.6 -- -- 97
2021-02-06 07:00:00 6.1 0 Calma 6 Sur 0.8 -- -- 97
2021-02-06 06:00:00 6.1 4 Sudoeste 15 Sudoeste 0 -- -- 97
2021-02-06 05:00:00 6.2 12 Sudoeste 20 Sudoeste 0.4 -- -- 97
2021-02-06 04:00:00 6.3 9 Sudoeste 16 Sudoeste 0 -- -- 98
2021-02-06 03:00:00 6.5 12 Sudoeste 20 Sudoeste 0 -- -- 98
2021-02-06 02:00:00 6.7 8 Sudoeste 14 Sudoeste 0 -- -- 98
2021-02-06 01:00:00 6.9 3 Sudoeste 8 Sudoeste 0.2 -- -- 98
2021-02-06 00:00:00 7.3 2 Oeste 20 Sudoeste 0.8 -- -- 98
2021-02-05 23:00:00 7.2 3 Norte 9 Norte 0.2 -- -- 97
2021-02-05 22:00:00 7.3 9 Norte 13 Norte 0 -- -- 97
2021-02-05 21:00:00 7.4 8 Norte 13 Noroeste 0 -- -- 95
2021-02-05 20:00:00 8.1 6 Noroeste 33 Sudoeste 0.4 -- -- 94
2021-02-05 19:00:00 8.4 5 Sur 22 Norte 2 -- -- 96
2021-02-05 18:00:00 8.6 15 Norte 26 Norte 0 -- -- 94
2021-02-05 17:00:00 9.2 14 Norte 21 Norte 0 -- -- 90
2021-02-05 16:00:00 9 14 Nordeste 18 Norte 0 -- -- 90
2021-02-05 15:00:00 8.5 9 Nordeste 16 Nordeste 0 -- -- 92
2021-02-05 14:00:00 8.2 6 Norte 9 Noroeste 0 -- -- 94
2021-02-05 13:00:00 7.8 6 Norte 10 Nordeste 0 -- -- 96
2021-02-05 12:00:00 7.4 5 Este 15 Nordeste 0 -- -- 97
2021-02-05 11:00:00 7.6 6 Este 11 Sudeste 0.4 -- -- 98
2021-02-05 10:00:00 5.8 3 Este 6 Norte 0.6 -- -- 99
2021-02-05 09:00:00 5.3 2 Noroeste 14 Oeste 0.6 -- -- 99
2021-02-05 08:00:00 5.2 6 Norte 11 Nordeste 0.4 -- -- 99
2021-02-05 07:00:00 5.1 9 Nordeste 16 Nordeste 0 -- -- 99
2021-02-05 06:00:00 5 9 Nordeste 17 Nordeste 0.2 -- -- 99
2021-02-05 05:00:00 4.9 9 Nordeste 18 Nordeste 0.2 -- -- 99
2021-02-05 04:00:00 4.9 10 Norte 21 Nordeste 0.8 -- -- 99
2021-02-05 03:00:00 4.8 12 Norte 20 Norte 0 -- -- 98
2021-02-05 02:00:00 4.9 12 Norte 17 Norte 0.8 -- -- 98
2021-02-05 01:00:00 4.9 13 Norte 17 Norte 0.4 -- -- 98
2021-02-05 00:00:00 4.9 8 Nordeste 14 Nordeste 0 -- -- 98
2021-02-04 23:00:00 5.1 9 Este 14 Este 0.4 -- -- 97
2021-02-04 22:00:00 5.2 0 Calma 13 Este 2 -- -- 97
2021-02-04 21:00:00 5.1 11 Sudeste 21 Este 0 -- -- 96
2021-02-04 20:00:00 5 12 Este 24 Sudeste 0.2 -- -- 96
2021-02-04 19:00:00 5.1 15 Sudeste 20 Sudeste 0.8 -- -- 95
2021-02-04 18:00:00 5.2 5 Sudeste 10 Este 0.8 -- -- 94
2021-02-04 17:00:00 5.1 6 Este 16 Nordeste 1.4 -- -- 93
2021-02-04 16:00:00 5.6 9 Nordeste 15 Nordeste 0.6 -- -- 93
2021-02-04 15:00:00 5.3 9 Norte 15 Norte 2.6 -- -- 95
2021-02-04 14:00:00 5.3 11 Norte 23 Norte 3.4 -- -- 94
2021-02-04 13:00:00 6 10 Norte 20 Norte 2.6 -- -- 94
2021-02-04 12:00:00 6.4 11 Norte 20 Noroeste 2.8 -- -- 96
2021-02-04 11:00:00 6.7 6 Norte 17 Nordeste 3.6 -- -- 97
2021-02-04 10:00:00 6.7 13 Nordeste 18 Nordeste 3 -- -- 97
2021-02-04 09:00:00 7.1 7 Nordeste 9 Nordeste 2 -- -- 97
2021-02-04 08:00:00 7.3 0 Calma 4 Sudeste 1 -- -- 96
2021-02-04 07:00:00 7.3 0 Calma 9 Sudeste 0.2 -- -- 96
2021-02-04 06:00:00 7.3 3 Este 9 Este 0 -- -- 95
2021-02-04 05:00:00 7.4 0 Calma 4 Sudoeste 0 -- -- 95
2021-02-04 04:00:00 7.3 2 Sudoeste 8 Sudoeste 0 -- -- 95
2021-02-04 03:00:00 7.4 6 Sudoeste 12 Sudoeste 0 -- -- 94
2021-02-04 02:00:00 7.7 6 Sudoeste 11 Sudoeste 0 -- -- 94
2021-02-04 01:00:00 7.6 4 Sudoeste 18 Sudoeste 0 -- -- 93
2021-02-04 00:00:00 8 11 Sudoeste 19 Sudoeste 0 -- -- 92
2021-02-03 23:00:00 8 10 Sudoeste 22 Sudoeste 0 -- -- 92
2021-02-03 22:00:00 8 12 Sudoeste 25 Sudoeste 0.2 -- -- 96
2021-02-03 21:00:00 7.8 9 Sudoeste 18 Sudoeste 0 -- -- 95
2021-02-03 20:00:00 7.6 13 Sudoeste 28 Sudoeste 0.6 -- -- 94
2021-02-03 19:00:00 8.1 21 Oeste 39 Sudoeste 1 -- -- 91
2021-02-03 18:00:00 9.6 20 Sudoeste 38 Sudoeste 0.6 -- -- 92
2021-02-03 17:00:00 9.9 24 Sudoeste 40 Oeste 0.4 -- -- 90
2021-02-03 16:00:00 10.8 26 Oeste 44 Sudoeste 0 -- -- 81
2021-02-03 15:00:00 10.7 29 Sudoeste 46 Sudoeste 0 -- -- 86
2021-02-03 14:00:00 10.9 29 Sudoeste 46 Sudoeste 0 -- -- 82
2021-02-03 13:00:00 11.2 24 Sudoeste 44 Sudoeste 1 -- -- 86
2021-02-03 12:00:00 10.4 30 Sudoeste 40 Sudoeste 0 -- -- 86
2021-02-03 11:00:00 9.9 22 Sudoeste 39 Sudoeste 0 -- -- 88
2021-02-03 10:00:00 8.7 17 Sudoeste 33 Sudoeste 0.4 -- -- 93
2021-02-03 09:00:00 8.2 18 Sudoeste 34 Sudoeste 0.2 -- -- 91
2021-02-03 08:00:00 8.1 26 Sudoeste 41 Sudoeste 0 -- -- 88
2021-02-03 07:00:00 8.3 31 Sudoeste 40 Sudoeste 0 -- -- 87
2021-02-03 06:00:00 8.4 27 Sudoeste 49 Sudoeste 0 -- -- 86
2021-02-03 05:00:00 8.4 31 Sudoeste 45 Sudoeste 0 -- -- 87
2021-02-03 04:00:00 8.3 33 Sudoeste 57 Sudoeste 0 -- -- 88
2021-02-03 03:00:00 8.6 44 Sudoeste 64 Sur 0 -- -- 86
2021-02-03 02:00:00 8.4 45 Sudoeste 60 Sudoeste 0 -- -- 86
2021-02-03 01:00:00 8.2 27 Sudoeste 47 Sudoeste 0 -- -- 88
2021-02-03 00:00:00 8 37 Sudoeste 49 Sur 0 -- -- 87
2021-02-02 23:00:00 8 31 Sur 42 Sudoeste 0 -- -- 86
2021-02-02 22:00:00 8.5 27 Sudoeste 48 Sudoeste 0 -- -- 84
2021-02-02 21:00:00 9 27 Sudoeste 37 Sudoeste 0 -- -- 83
2021-02-02 20:00:00 9.6 25 Sudoeste 34 Sudoeste 0 -- -- 81
2021-02-02 19:00:00 9.7 16 Sudoeste 31 Sudoeste 0 -- -- 83
2021-02-02 18:00:00 10.3 23 Sudoeste 42 Sur 0 -- -- 79
2021-02-02 17:00:00 11.4 21 Sudoeste 35 Sudoeste 0 -- -- 77
2021-02-02 16:00:00 12.3 25 Sudoeste 39 Sudoeste 0 -- -- 71
2021-02-02 15:00:00 12.1 28 Oeste 42 Oeste 0 -- -- 72
2021-02-02 14:00:00 11.9 32 Oeste 45 Sudoeste 0 -- -- 71
2021-02-02 13:00:00 10.8 30 Sudoeste 43 Sudoeste 0 -- -- 81
2021-02-02 12:00:00 9.6 28 Sudoeste 45 Sudoeste 0 -- -- 88
2021-02-02 11:00:00 9 23 Sudoeste 37 Sudoeste 0 -- -- 93
2021-02-02 10:00:00 8.6 16 Oeste 35 Sudoeste 0 -- -- 92
2021-02-02 09:00:00 8.2 18 Sudoeste 30 Oeste 0.2 -- -- 95
2021-02-02 08:00:00 8.8 17 Oeste 29 Sudoeste 0 -- -- 94
2021-02-02 07:00:00 8.9 17 Oeste 32 Oeste 0 -- -- 94
2021-02-02 06:00:00 9.1 25 Oeste 42 Sudoeste 0 -- -- 92
2021-02-02 05:00:00 9.5 26 Sudoeste 37 Sudoeste 0 -- -- 95
2021-02-02 04:00:00 9.2 17 Sudoeste 27 Sudoeste 0.2 -- -- 96
2021-02-02 03:00:00 9 18 Sudoeste 28 Sudoeste 0.2 -- -- 96
2021-02-02 02:00:00 9.1 15 Sudoeste 29 Sudoeste 0 -- -- 95
2021-02-02 01:00:00 9.7 22 Sudoeste 31 Sudoeste 0 -- -- 92
2021-02-02 00:00:00 9.2 17 Sudoeste 29 Sudoeste 0 -- -- 94
2021-02-01 23:00:00 8.7 19 Sudoeste 31 Sudoeste 0 -- -- 94
2021-02-01 22:00:00 9.1 18 Sudoeste 33 Sudoeste 0 -- -- 88
2021-02-01 21:00:00 8.6 14 Sudoeste 28 Sudoeste 0 -- -- 86
2021-02-01 20:00:00 9.5 17 Sudoeste 30 Oeste 0 -- -- 81
2021-02-01 19:00:00 10.3 18 Sudoeste 32 Sudoeste 0 -- -- 79
2021-02-01 18:00:00 11.1 24 Oeste 44 Oeste 0 -- -- 75
2021-02-01 17:00:00 12.3 26 Oeste 40 Oeste 0 -- -- 70
2021-02-01 16:00:00 13.1 31 Oeste 45 Oeste 0 -- -- 65
2021-02-01 15:00:00 12.2 35 Oeste 48 Oeste 0 -- -- 67
2021-02-01 14:00:00 11.4 32 Oeste 47 Oeste 0 -- -- 74
2021-02-01 13:00:00 10.4 29 Oeste 41 Sudoeste 0 -- -- 81
2021-02-01 12:00:00 9.4 28 Sudoeste 41 Oeste 0 -- -- 85
2021-02-01 11:00:00 9.3 28 Sudoeste 41 Oeste 0 -- -- 84
2021-02-01 10:00:00 7.9 26 Oeste 40 Sudoeste 0 -- -- 88
2021-02-01 09:00:00 7.3 28 Oeste 45 Oeste 0 -- -- 87
2021-02-01 08:00:00 6.9 26 Sudoeste 39 Oeste 0 -- -- 89
2021-02-01 07:00:00 7.1 29 Oeste 42 Oeste 0 -- -- 88
2021-02-01 06:00:00 7.3 26 Oeste 46 Oeste 0 -- -- 86
2021-02-01 05:00:00 7.7 30 Oeste 45 Oeste 0 -- -- 84
2021-02-01 04:00:00 7.8 32 Oeste 49 Oeste 0 -- -- 84
2021-02-01 03:00:00 8 32 Oeste 51 Oeste 0 -- -- 82
2021-02-01 02:00:00 8.5 33 Oeste 57 Oeste 0 -- -- 81
2021-02-01 01:00:00 9 36 Oeste 62 Oeste 0 -- -- 85
2021-02-01 00:00:00 9.7 41 Oeste 66 Oeste 0 -- -- 81